Airfield Information

Duty Pilot: N/A

Runway (CCT): W.I.P

Surface Wind: 128 degrees at 9.6 knot

QFE: 995

QNH: 996

Next update: 10:00

METAR Information


EGXU
RAF Linton

{ "results": 1, "data": [ "EGCN 251150Z 16013KT 9999 RA SCT025 BKN048 13/07 Q0998" ] }

EGNM
Leeds Bradford

EGXE
RAF Leeming

EGNV
Durham Tees Valley


EGCN
Doncaster Sheffield

EGNJ
Humberside

EGXP
RAF Scampton

EGXC
RAF Coningsby